sensor_id;sensor_type;location;lat;lon;timestamp;P1;durP1;ratioP1;P2;durP2;ratioP2
35324;SDS011;35135;47.510;19.036;2023-04-25T00:00:46;1.00;;;0.60;;
35324;SDS011;35135;47.510;19.036;2023-04-25T00:03:11;1.73;;;0.77;;
35324;SDS011;35135;47.510;19.036;2023-04-25T00:05:37;1.10;;;0.77;;
35324;SDS011;35135;47.510;19.036;2023-04-25T00:08:04;1.10;;;0.85;;
35324;SDS011;35135;47.510;19.036;2023-04-25T00:10:30;1.17;;;0.82;;
35324;SDS011;35135;47.510;19.036;2023-04-25T00:12:56;0.98;;;0.88;;
35324;SDS011;35135;47.510;19.036;2023-04-25T00:15:22;0.88;;;0.52;;
35324;SDS011;35135;47.510;19.036;2023-04-25T00:17:49;1.00;;;0.70;;
35324;SDS011;35135;47.510;19.036;2023-04-25T00:20:17;0.88;;;0.80;;
35324;SDS011;35135;47.510;19.036;2023-04-25T00:22:43;1.52;;;0.70;;
35324;SDS011;35135;47.510;19.036;2023-04-25T00:25:09;1.20;;;0.88;;
35324;SDS011;35135;47.510;19.036;2023-04-25T00:27:35;1.48;;;0.82;;
35324;SDS011;35135;47.510;19.036;2023-04-25T00:30:00;2.95;;;0.70;;
35324;SDS011;35135;47.510;19.036;2023-04-25T00:32:26;2.35;;;0.95;;
35324;SDS011;35135;47.510;19.036;2023-04-25T00:34:52;1.35;;;0.65;;
35324;SDS011;35135;47.510;19.036;2023-04-25T00:37:17;1.23;;;0.80;;
35324;SDS011;35135;47.510;19.036;2023-04-25T00:39:43;1.05;;;0.70;;
35324;SDS011;35135;47.510;19.036;2023-04-25T00:42:09;1.50;;;0.60;;
35324;SDS011;35135;47.510;19.036;2023-04-25T00:44:36;1.52;;;0.60;;
35324;SDS011;35135;47.510;19.036;2023-04-25T00:47:02;1.52;;;0.80;;
35324;SDS011;35135;47.510;19.036;2023-04-25T00:49:28;2.63;;;0.75;;
35324;SDS011;35135;47.510;19.036;2023-04-25T00:51:54;0.95;;;0.70;;
35324;SDS011;35135;47.510;19.036;2023-04-25T00:54:21;2.13;;;0.60;;
35324;SDS011;35135;47.510;19.036;2023-04-25T00:56:47;0.98;;;0.60;;
35324;SDS011;35135;47.510;19.036;2023-04-25T00:59:13;0.85;;;0.52;;
35324;SDS011;35135;47.510;19.036;2023-04-25T01:01:40;0.88;;;0.70;;
35324;SDS011;35135;47.510;19.036;2023-04-25T01:04:07;0.70;;;0.70;;
35324;SDS011;35135;47.510;19.036;2023-04-25T01:06:32;0.70;;;0.65;;
35324;SDS011;35135;47.510;19.036;2023-04-25T01:08:58;1.13;;;0.60;;
35324;SDS011;35135;47.510;19.036;2023-04-25T01:11:24;0.88;;;0.55;;
35324;SDS011;35135;47.510;19.036;2023-04-25T01:13:50;1.00;;;0.68;;
35324;SDS011;35135;47.510;19.036;2023-04-25T01:16:16;1.63;;;0.60;;
35324;SDS011;35135;47.510;19.036;2023-04-25T01:18:42;1.48;;;0.88;;
35324;SDS011;35135;47.510;19.036;2023-04-25T01:21:09;0.90;;;0.60;;
35324;SDS011;35135;47.510;19.036;2023-04-25T01:23:39;1.33;;;0.80;;
35324;SDS011;35135;47.510;19.036;2023-04-25T01:26:06;0.40;;;0.40;;
35324;SDS011;35135;47.510;19.036;2023-04-25T01:28:33;0.75;;;0.52;;
35324;SDS011;35135;47.510;19.036;2023-04-25T01:30:59;0.77;;;0.50;;
35324;SDS011;35135;47.510;19.036;2023-04-25T01:33:26;1.00;;;0.60;;
35324;SDS011;35135;47.510;19.036;2023-04-25T01:35:52;1.23;;;0.70;;
35324;SDS011;35135;47.510;19.036;2023-04-25T01:38:17;1.08;;;0.50;;
35324;SDS011;35135;47.510;19.036;2023-04-25T01:40:44;1.00;;;0.70;;
35324;SDS011;35135;47.510;19.036;2023-04-25T01:43:11;0.50;;;0.50;;
35324;SDS011;35135;47.510;19.036;2023-04-25T01:45:39;1.33;;;0.60;;
35324;SDS011;35135;47.510;19.036;2023-04-25T01:48:06;0.80;;;0.70;;
35324;SDS011;35135;47.510;19.036;2023-04-25T01:50:33;1.10;;;0.80;;
35324;SDS011;35135;47.510;19.036;2023-04-25T01:52:59;1.20;;;0.70;;
35324;SDS011;35135;47.510;19.036;2023-04-25T01:55:25;1.02;;;0.70;;
35324;SDS011;35135;47.510;19.036;2023-04-25T01:57:51;0.80;;;0.73;;
35324;SDS011;35135;47.510;19.036;2023-04-25T02:00:16;1.08;;;0.50;;
35324;SDS011;35135;47.510;19.036;2023-04-25T02:02:42;1.52;;;0.70;;
35324;SDS011;35135;47.510;19.036;2023-04-25T02:05:08;1.00;;;0.55;;
35324;SDS011;35135;47.510;19.036;2023-04-25T02:07:34;0.98;;;0.65;;
35324;SDS011;35135;47.510;19.036;2023-04-25T02:09:59;1.63;;;0.70;;
35324;SDS011;35135;47.510;19.036;2023-04-25T02:12:26;0.50;;;0.43;;
35324;SDS011;35135;47.510;19.036;2023-04-25T02:14:52;1.13;;;0.70;;
35324;SDS011;35135;47.510;19.036;2023-04-25T02:17:18;1.00;;;0.55;;
35324;SDS011;35135;47.510;19.036;2023-04-25T02:19:44;0.90;;;0.55;;
35324;SDS011;35135;47.510;19.036;2023-04-25T02:22:10;0.80;;;0.80;;
35324;SDS011;35135;47.510;19.036;2023-04-25T02:24:35;0.55;;;0.52;;
35324;SDS011;35135;47.510;19.036;2023-04-25T02:27:01;0.73;;;0.60;;
35324;SDS011;35135;47.510;19.036;2023-04-25T02:29:29;0.90;;;0.80;;
35324;SDS011;35135;47.510;19.036;2023-04-25T02:31:54;0.90;;;0.75;;
35324;SDS011;35135;47.510;19.036;2023-04-25T02:34:20;1.13;;;0.70;;
35324;SDS011;35135;47.510;19.036;2023-04-25T02:36:46;1.48;;;0.63;;
35324;SDS011;35135;47.510;19.036;2023-04-25T02:39:12;0.80;;;0.77;;
35324;SDS011;35135;47.510;19.036;2023-04-25T02:41:38;1.13;;;0.70;;
35324;SDS011;35135;47.510;19.036;2023-04-25T02:44:04;1.55;;;0.63;;
35324;SDS011;35135;47.510;19.036;2023-04-25T02:46:29;0.65;;;0.60;;
35324;SDS011;35135;47.510;19.036;2023-04-25T02:48:55;0.98;;;0.88;;
35324;SDS011;35135;47.510;19.036;2023-04-25T02:51:21;1.48;;;0.75;;
35324;SDS011;35135;47.510;19.036;2023-04-25T02:53:46;1.48;;;0.60;;
35324;SDS011;35135;47.510;19.036;2023-04-25T02:56:12;0.88;;;0.70;;
35324;SDS011;35135;47.510;19.036;2023-04-25T02:58:38;1.10;;;0.80;;
35324;SDS011;35135;47.510;19.036;2023-04-25T03:01:03;0.82;;;0.60;;
35324;SDS011;35135;47.510;19.036;2023-04-25T03:03:29;1.58;;;0.70;;
35324;SDS011;35135;47.510;19.036;2023-04-25T03:05:55;1.30;;;0.60;;
35324;SDS011;35135;47.510;19.036;2023-04-25T03:08:20;0.68;;;0.60;;
35324;SDS011;35135;47.510;19.036;2023-04-25T03:10:46;0.70;;;0.60;;
35324;SDS011;35135;47.510;19.036;2023-04-25T03:13:12;0.95;;;0.70;;
35324;SDS011;35135;47.510;19.036;2023-04-25T03:15:38;0.85;;;0.70;;
35324;SDS011;35135;47.510;19.036;2023-04-25T03:18:04;1.17;;;0.55;;
35324;SDS011;35135;47.510;19.036;2023-04-25T03:20:29;1.20;;;0.80;;
35324;SDS011;35135;47.510;19.036;2023-04-25T03:22:55;0.50;;;0.50;;
35324;SDS011;35135;47.510;19.036;2023-04-25T03:25:21;2.42;;;0.55;;
35324;SDS011;35135;47.510;19.036;2023-04-25T03:27:47;0.63;;;0.63;;
35324;SDS011;35135;47.510;19.036;2023-04-25T03:30:13;1.40;;;0.88;;
35324;SDS011;35135;47.510;19.036;2023-04-25T03:32:38;1.00;;;0.77;;
35324;SDS011;35135;47.510;19.036;2023-04-25T03:35:04;1.00;;;0.80;;
35324;SDS011;35135;47.510;19.036;2023-04-25T03:37:30;0.77;;;0.60;;
35324;SDS011;35135;47.510;19.036;2023-04-25T03:39:56;0.77;;;0.68;;
35324;SDS011;35135;47.510;19.036;2023-04-25T03:42:22;1.10;;;0.65;;
35324;SDS011;35135;47.510;19.036;2023-04-25T03:44:48;0.95;;;0.70;;
35324;SDS011;35135;47.510;19.036;2023-04-25T03:47:14;1.35;;;0.75;;
35324;SDS011;35135;47.510;19.036;2023-04-25T03:49:40;1.80;;;0.88;;
35324;SDS011;35135;47.510;19.036;2023-04-25T03:52:07;1.02;;;0.80;;
35324;SDS011;35135;47.510;19.036;2023-04-25T03:54:33;0.82;;;0.75;;
35324;SDS011;35135;47.510;19.036;2023-04-25T03:56:58;1.15;;;0.80;;
35324;SDS011;35135;47.510;19.036;2023-04-25T03:59:24;2.65;;;0.63;;
35324;SDS011;35135;47.510;19.036;2023-04-25T04:01:51;1.83;;;0.70;;
35324;SDS011;35135;47.510;19.036;2023-04-25T04:04:17;3.35;;;1.00;;
35324;SDS011;35135;47.510;19.036;2023-04-25T04:06:43;1.00;;;0.70;;
35324;SDS011;35135;47.510;19.036;2023-04-25T04:09:09;2.40;;;0.90;;
35324;SDS011;35135;47.510;19.036;2023-04-25T04:11:39;0.85;;;0.70;;
35324;SDS011;35135;47.510;19.036;2023-04-25T04:14:05;0.80;;;0.73;;
35324;SDS011;35135;47.510;19.036;2023-04-25T04:16:32;1.38;;;0.90;;
35324;SDS011;35135;47.510;19.036;2023-04-25T04:18:57;0.85;;;0.73;;
35324;SDS011;35135;47.510;19.036;2023-04-25T04:21:23;1.02;;;0.70;;
35324;SDS011;35135;47.510;19.036;2023-04-25T04:23:49;2.78;;;1.40;;
35324;SDS011;35135;47.510;19.036;2023-04-25T04:26:15;3.47;;;0.88;;
35324;SDS011;35135;47.510;19.036;2023-04-25T04:28:43;2.63;;;1.10;;
35324;SDS011;35135;47.510;19.036;2023-04-25T04:31:12;1.73;;;0.90;;
35324;SDS011;35135;47.510;19.036;2023-04-25T04:33:40;2.20;;;1.00;;
35324;SDS011;35135;47.510;19.036;2023-04-25T04:36:06;3.10;;;0.93;;
35324;SDS011;35135;47.510;19.036;2023-04-25T04:38:32;1.92;;;0.82;;
35324;SDS011;35135;47.510;19.036;2023-04-25T04:40:58;1.35;;;0.80;;
35324;SDS011;35135;47.510;19.036;2023-04-25T04:43:24;2.35;;;1.00;;
35324;SDS011;35135;47.510;19.036;2023-04-25T04:45:49;1.50;;;1.02;;
35324;SDS011;35135;47.510;19.036;2023-04-25T04:48:16;2.83;;;1.10;;
35324;SDS011;35135;47.510;19.036;2023-04-25T04:50:45;2.53;;;1.00;;
35324;SDS011;35135;47.510;19.036;2023-04-25T04:53:11;1.42;;;0.85;;
35324;SDS011;35135;47.510;19.036;2023-04-25T04:55:37;3.28;;;1.10;;
35324;SDS011;35135;47.510;19.036;2023-04-25T04:58:02;2.50;;;1.10;;
35324;SDS011;35135;47.510;19.036;2023-04-25T05:00:28;6.68;;;1.50;;
35324;SDS011;35135;47.510;19.036;2023-04-25T05:02:54;3.97;;;1.15;;
35324;SDS011;35135;47.510;19.036;2023-04-25T05:05:20;3.88;;;1.20;;
35324;SDS011;35135;47.510;19.036;2023-04-25T05:07:46;4.28;;;1.00;;
35324;SDS011;35135;47.510;19.036;2023-04-25T05:10:12;4.75;;;1.13;;
35324;SDS011;35135;47.510;19.036;2023-04-25T05:12:37;4.28;;;1.23;;
35324;SDS011;35135;47.510;19.036;2023-04-25T05:15:03;6.63;;;1.50;;
35324;SDS011;35135;47.510;19.036;2023-04-25T05:17:29;3.13;;;1.27;;
35324;SDS011;35135;47.510;19.036;2023-04-25T05:19:55;4.82;;;1.50;;
35324;SDS011;35135;47.510;19.036;2023-04-25T05:22:21;3.67;;;1.02;;
35324;SDS011;35135;47.510;19.036;2023-04-25T05:24:47;4.63;;;1.13;;
35324;SDS011;35135;47.510;19.036;2023-04-25T05:27:16;2.88;;;1.30;;
35324;SDS011;35135;47.510;19.036;2023-04-25T05:29:42;5.82;;;1.63;;
35324;SDS011;35135;47.510;19.036;2023-04-25T05:32:08;4.95;;;1.45;;
35324;SDS011;35135;47.510;19.036;2023-04-25T05:34:34;3.55;;;1.30;;
35324;SDS011;35135;47.510;19.036;2023-04-25T05:37:00;5.60;;;1.40;;
35324;SDS011;35135;47.510;19.036;2023-04-25T05:39:26;5.72;;;1.52;;
35324;SDS011;35135;47.510;19.036;2023-04-25T05:41:51;3.50;;;1.60;;
35324;SDS011;35135;47.510;19.036;2023-04-25T05:44:17;2.38;;;1.60;;
35324;SDS011;35135;47.510;19.036;2023-04-25T05:46:43;2.20;;;1.40;;
35324;SDS011;35135;47.510;19.036;2023-04-25T05:49:09;2.72;;;1.60;;
35324;SDS011;35135;47.510;19.036;2023-04-25T05:51:34;6.90;;;1.65;;
35324;SDS011;35135;47.510;19.036;2023-04-25T05:54:00;7.25;;;1.83;;
35324;SDS011;35135;47.510;19.036;2023-04-25T05:56:26;6.05;;;1.63;;
35324;SDS011;35135;47.510;19.036;2023-04-25T05:58:52;6.68;;;1.70;;
35324;SDS011;35135;47.510;19.036;2023-04-25T06:01:17;4.78;;;1.52;;
35324;SDS011;35135;47.510;19.036;2023-04-25T06:03:43;2.25;;;1.42;;
35324;SDS011;35135;47.510;19.036;2023-04-25T06:06:10;2.70;;;1.40;;
35324;SDS011;35135;47.510;19.036;2023-04-25T06:08:36;3.58;;;1.73;;
35324;SDS011;35135;47.510;19.036;2023-04-25T06:11:03;6.22;;;1.63;;
35324;SDS011;35135;47.510;19.036;2023-04-25T06:13:29;8.20;;;1.63;;
35324;SDS011;35135;47.510;19.036;2023-04-25T06:15:55;5.97;;;1.75;;
35324;SDS011;35135;47.510;19.036;2023-04-25T06:18:21;7.75;;;1.85;;
35324;SDS011;35135;47.510;19.036;2023-04-25T06:20:47;11.55;;;1.95;;
35324;SDS011;35135;47.510;19.036;2023-04-25T06:23:13;6.40;;;2.53;;
35324;SDS011;35135;47.510;19.036;2023-04-25T06:25:38;5.68;;;2.05;;
35324;SDS011;35135;47.510;19.036;2023-04-25T06:28:04;7.00;;;1.77;;
35324;SDS011;35135;47.510;19.036;2023-04-25T06:30:30;6.13;;;2.10;;
35324;SDS011;35135;47.510;19.036;2023-04-25T06:32:56;5.68;;;1.70;;
35324;SDS011;35135;47.510;19.036;2023-04-25T06:35:22;7.40;;;1.67;;
35324;SDS011;35135;47.510;19.036;2023-04-25T06:37:47;3.80;;;1.52;;
35324;SDS011;35135;47.510;19.036;2023-04-25T06:40:13;5.15;;;2.00;;
35324;SDS011;35135;47.510;19.036;2023-04-25T06:42:39;5.68;;;1.90;;
35324;SDS011;35135;47.510;19.036;2023-04-25T06:45:05;4.22;;;1.80;;
35324;SDS011;35135;47.510;19.036;2023-04-25T06:47:31;3.97;;;1.98;;
35324;SDS011;35135;47.510;19.036;2023-04-25T06:49:57;3.00;;;1.70;;
35324;SDS011;35135;47.510;19.036;2023-04-25T06:52:22;6.85;;;1.90;;
35324;SDS011;35135;47.510;19.036;2023-04-25T06:54:48;2.65;;;1.73;;
35324;SDS011;35135;47.510;19.036;2023-04-25T06:57:14;6.70;;;1.73;;
35324;SDS011;35135;47.510;19.036;2023-04-25T06:59:39;12.10;;;2.50;;
35324;SDS011;35135;47.510;19.036;2023-04-25T07:02:05;3.00;;;1.50;;
35324;SDS011;35135;47.510;19.036;2023-04-25T07:04:31;8.85;;;2.15;;
35324;SDS011;35135;47.510;19.036;2023-04-25T07:06:56;4.10;;;1.70;;
35324;SDS011;35135;47.510;19.036;2023-04-25T07:09:22;3.67;;;1.90;;
35324;SDS011;35135;47.510;19.036;2023-04-25T07:11:48;3.75;;;1.58;;
35324;SDS011;35135;47.510;19.036;2023-04-25T07:14:14;5.30;;;1.73;;
35324;SDS011;35135;47.510;19.036;2023-04-25T07:16:40;3.50;;;1.75;;
35324;SDS011;35135;47.510;19.036;2023-04-25T07:19:05;5.53;;;2.20;;
35324;SDS011;35135;47.510;19.036;2023-04-25T07:21:31;4.95;;;1.40;;
35324;SDS011;35135;47.510;19.036;2023-04-25T07:23:57;5.70;;;1.95;;
35324;SDS011;35135;47.510;19.036;2023-04-25T07:26:23;3.85;;;1.38;;
35324;SDS011;35135;47.510;19.036;2023-04-25T07:28:49;2.38;;;1.33;;
35324;SDS011;35135;47.510;19.036;2023-04-25T07:31:16;3.45;;;1.70;;
35324;SDS011;35135;47.510;19.036;2023-04-25T07:33:43;3.22;;;1.48;;
35324;SDS011;35135;47.510;19.036;2023-04-25T07:36:10;3.30;;;1.48;;
35324;SDS011;35135;47.510;19.036;2023-04-25T07:38:37;3.20;;;1.50;;
35324;SDS011;35135;47.510;19.036;2023-04-25T07:41:03;3.65;;;1.50;;
35324;SDS011;35135;47.510;19.036;2023-04-25T07:43:29;2.10;;;1.25;;
35324;SDS011;35135;47.510;19.036;2023-04-25T07:45:55;6.63;;;1.70;;
35324;SDS011;35135;47.510;19.036;2023-04-25T07:48:21;5.88;;;1.40;;
35324;SDS011;35135;47.510;19.036;2023-04-25T07:50:47;3.05;;;1.40;;
35324;SDS011;35135;47.510;19.036;2023-04-25T07:53:13;2.40;;;1.30;;
35324;SDS011;35135;47.510;19.036;2023-04-25T07:55:38;3.78;;;1.05;;
35324;SDS011;35135;47.510;19.036;2023-04-25T07:58:08;2.25;;;1.05;;
35324;SDS011;35135;47.510;19.036;2023-04-25T08:00:34;2.00;;;1.20;;
35324;SDS011;35135;47.510;19.036;2023-04-25T08:03:01;2.70;;;1.27;;
35324;SDS011;35135;47.510;19.036;2023-04-25T08:05:27;1.63;;;1.10;;
35324;SDS011;35135;47.510;19.036;2023-04-25T08:07:53;3.65;;;1.27;;
35324;SDS011;35135;47.510;19.036;2023-04-25T08:10:19;1.50;;;1.10;;
35324;SDS011;35135;47.510;19.036;2023-04-25T08:12:45;4.13;;;1.40;;
35324;SDS011;35135;47.510;19.036;2023-04-25T08:15:11;2.97;;;1.10;;
35324;SDS011;35135;47.510;19.036;2023-04-25T08:17:38;2.08;;;1.20;;
35324;SDS011;35135;47.510;19.036;2023-04-25T08:20:04;2.42;;;1.23;;
35324;SDS011;35135;47.510;19.036;2023-04-25T08:22:31;2.10;;;1.20;;
35324;SDS011;35135;47.510;19.036;2023-04-25T08:24:57;2.65;;;1.30;;
35324;SDS011;35135;47.510;19.036;2023-04-25T08:27:22;1.25;;;0.95;;
35324;SDS011;35135;47.510;19.036;2023-04-25T08:29:48;1.80;;;1.45;;
35324;SDS011;35135;47.510;19.036;2023-04-25T08:32:16;2.22;;;1.00;;
35324;SDS011;35135;47.510;19.036;2023-04-25T08:34:42;1.60;;;1.13;;
35324;SDS011;35135;47.510;19.036;2023-04-25T08:37:09;1.67;;;1.10;;
35324;SDS011;35135;47.510;19.036;2023-04-25T08:39:35;2.55;;;1.02;;
35324;SDS011;35135;47.510;19.036;2023-04-25T08:42:02;2.30;;;0.88;;
35324;SDS011;35135;47.510;19.036;2023-04-25T08:44:33;2.30;;;1.30;;
35324;SDS011;35135;47.510;19.036;2023-04-25T08:47:00;1.83;;;1.10;;
35324;SDS011;35135;47.510;19.036;2023-04-25T08:49:31;1.50;;;0.98;;
35324;SDS011;35135;47.510;19.036;2023-04-25T08:52:02;2.08;;;1.25;;
35324;SDS011;35135;47.510;19.036;2023-04-25T08:54:30;1.63;;;1.10;;
35324;SDS011;35135;47.510;19.036;2023-04-25T08:56:57;1.92;;;1.17;;
35324;SDS011;35135;47.510;19.036;2023-04-25T08:59:26;1.42;;;1.05;;
35324;SDS011;35135;47.510;19.036;2023-04-25T09:01:53;1.80;;;0.90;;
35324;SDS011;35135;47.510;19.036;2023-04-25T09:04:19;1.42;;;1.00;;
35324;SDS011;35135;47.510;19.036;2023-04-25T09:06:46;2.38;;;1.10;;
35324;SDS011;35135;47.510;19.036;2023-04-25T09:09:12;1.45;;;1.00;;
35324;SDS011;35135;47.510;19.036;2023-04-25T09:11:39;3.83;;;1.67;;
35324;SDS011;35135;47.510;19.036;2023-04-25T09:14:12;3.67;;;1.10;;
35324;SDS011;35135;47.510;19.036;2023-04-25T09:17:00;3.35;;;1.45;;
35324;SDS011;35135;47.510;19.036;2023-04-25T09:22:00;2.67;;;1.10;;
35324;SDS011;35135;47.510;19.036;2023-04-25T09:24:37;4.03;;;1.10;;
35324;SDS011;35135;47.510;19.036;2023-04-25T09:27:08;1.52;;;0.90;;
35324;SDS011;35135;47.510;19.036;2023-04-25T09:29:36;1.23;;;1.10;;
35324;SDS011;35135;47.510;19.036;2023-04-25T09:34:40;1.98;;;0.90;;
35324;SDS011;35135;47.510;19.036;2023-04-25T09:39:46;4.32;;;1.63;;
35324;SDS011;35135;47.510;19.036;2023-04-25T09:42:15;6.25;;;1.17;;
35324;SDS011;35135;47.510;19.036;2023-04-25T09:44:42;8.05;;;1.90;;
35324;SDS011;35135;47.510;19.036;2023-04-25T09:47:12;5.53;;;1.50;;
35324;SDS011;35135;47.510;19.036;2023-04-25T09:49:40;4.90;;;1.50;;
35324;SDS011;35135;47.510;19.036;2023-04-25T09:52:07;4.90;;;1.20;;
35324;SDS011;35135;47.510;19.036;2023-04-25T09:54:33;4.05;;;1.33;;
35324;SDS011;35135;47.510;19.036;2023-04-25T09:57:05;2.40;;;1.00;;
35324;SDS011;35135;47.510;19.036;2023-04-25T09:59:48;2.85;;;1.30;;
35324;SDS011;35135;47.510;19.036;2023-04-25T10:02:16;2.45;;;1.17;;
35324;SDS011;35135;47.510;19.036;2023-04-25T10:04:47;2.20;;;1.10;;
35324;SDS011;35135;47.510;19.036;2023-04-25T10:07:14;2.83;;;0.82;;
35324;SDS011;35135;47.510;19.036;2023-04-25T10:09:40;3.28;;;1.27;;
35324;SDS011;35135;47.510;19.036;2023-04-25T10:12:07;1.13;;;0.98;;
35324;SDS011;35135;47.510;19.036;2023-04-25T10:14:33;2.42;;;1.08;;
35324;SDS011;35135;47.510;19.036;2023-04-25T10:16:59;2.50;;;1.45;;
35324;SDS011;35135;47.510;19.036;2023-04-25T10:19:26;1.90;;;1.00;;
35324;SDS011;35135;47.510;19.036;2023-04-25T10:21:56;2.65;;;1.13;;
35324;SDS011;35135;47.510;19.036;2023-04-25T10:24:35;3.63;;;1.00;;
35324;SDS011;35135;47.510;19.036;2023-04-25T10:27:02;1.75;;;1.17;;
35324;SDS011;35135;47.510;19.036;2023-04-25T10:29:30;1.23;;;1.00;;
35324;SDS011;35135;47.510;19.036;2023-04-25T10:31:56;2.65;;;1.20;;
35324;SDS011;35135;47.510;19.036;2023-04-25T10:34:41;0.88;;;0.70;;
35324;SDS011;35135;47.510;19.036;2023-04-25T10:37:08;1.40;;;0.73;;
35324;SDS011;35135;47.510;19.036;2023-04-25T10:39:35;3.38;;;0.98;;
35324;SDS011;35135;47.510;19.036;2023-04-25T10:42:05;1.30;;;0.98;;
35324;SDS011;35135;47.510;19.036;2023-04-25T10:44:31;1.33;;;0.82;;
35324;SDS011;35135;47.510;19.036;2023-04-25T10:46:57;2.60;;;0.98;;
35324;SDS011;35135;47.510;19.036;2023-04-25T10:54:53;1.15;;;0.75;;
35324;SDS011;35135;47.510;19.036;2023-04-25T10:57:34;1.10;;;0.70;;
35324;SDS011;35135;47.510;19.036;2023-04-25T11:00:06;0.70;;;0.52;;
35324;SDS011;35135;47.510;19.036;2023-04-25T11:02:40;1.63;;;0.80;;
35324;SDS011;35135;47.510;19.036;2023-04-25T11:05:33;3.03;;;1.30;;
35324;SDS011;35135;47.510;19.036;2023-04-25T11:08:01;6.32;;;2.05;;
35324;SDS011;35135;47.510;19.036;2023-04-25T11:10:29;11.63;;;3.80;;
35324;SDS011;35135;47.510;19.036;2023-04-25T11:12:56;25.42;;;9.35;;
35324;SDS011;35135;47.510;19.036;2023-04-25T11:15:23;32.67;;;11.95;;
35324;SDS011;35135;47.510;19.036;2023-04-25T11:17:53;46.63;;;15.13;;
35324;SDS011;35135;47.510;19.036;2023-04-25T11:20:19;37.47;;;15.18;;
35324;SDS011;35135;47.510;19.036;2023-04-25T11:22:46;39.60;;;14.05;;
35324;SDS011;35135;47.510;19.036;2023-04-25T11:25:13;31.88;;;12.98;;
35324;SDS011;35135;47.510;19.036;2023-04-25T11:30:16;28.17;;;12.32;;
35324;SDS011;35135;47.510;19.036;2023-04-25T11:32:42;31.08;;;13.07;;
35324;SDS011;35135;47.510;19.036;2023-04-25T11:35:08;32.70;;;13.35;;
35324;SDS011;35135;47.510;19.036;2023-04-25T11:37:35;25.77;;;11.15;;
35324;SDS011;35135;47.510;19.036;2023-04-25T11:40:04;31.73;;;11.73;;
35324;SDS011;35135;47.510;19.036;2023-04-25T11:42:31;27.58;;;12.15;;
35324;SDS011;35135;47.510;19.036;2023-04-25T11:44:58;26.77;;;11.38;;
35324;SDS011;35135;47.510;19.036;2023-04-25T11:47:30;24.75;;;10.95;;
35324;SDS011;35135;47.510;19.036;2023-04-25T11:50:00;25.95;;;10.35;;
35324;SDS011;35135;47.510;19.036;2023-04-25T11:52:40;21.65;;;9.65;;
35324;SDS011;35135;47.510;19.036;2023-04-25T11:55:08;24.15;;;9.98;;
35324;SDS011;35135;47.510;19.036;2023-04-25T11:57:37;18.80;;;8.25;;
35324;SDS011;35135;47.510;19.036;2023-04-25T12:00:05;18.77;;;9.00;;
35324;SDS011;35135;47.510;19.036;2023-04-25T12:02:36;21.35;;;8.38;;
35324;SDS011;35135;47.510;19.036;2023-04-25T12:05:02;15.52;;;7.55;;
35324;SDS011;35135;47.510;19.036;2023-04-25T12:07:33;17.00;;;8.05;;
35324;SDS011;35135;47.510;19.036;2023-04-25T12:10:03;18.45;;;7.32;;
35324;SDS011;35135;47.510;19.036;2023-04-25T12:12:34;16.10;;;7.30;;
35324;SDS011;35135;47.510;19.036;2023-04-25T12:15:10;14.85;;;6.50;;
35324;SDS011;35135;47.510;19.036;2023-04-25T12:17:44;16.92;;;6.65;;
35324;SDS011;35135;47.510;19.036;2023-04-25T12:20:15;14.40;;;6.13;;
35324;SDS011;35135;47.510;19.036;2023-04-25T12:22:42;13.20;;;5.53;;
35324;SDS011;35135;47.510;19.036;2023-04-25T12:25:10;16.20;;;5.82;;
35324;SDS011;35135;47.510;19.036;2023-04-25T12:27:37;13.95;;;5.63;;
35324;SDS011;35135;47.510;19.036;2023-04-25T12:30:09;11.85;;;5.65;;
35324;SDS011;35135;47.510;19.036;2023-04-25T12:32:35;13.15;;;5.93;;
35324;SDS011;35135;47.510;19.036;2023-04-25T12:35:02;14.35;;;5.40;;
35324;SDS011;35135;47.510;19.036;2023-04-25T12:37:29;13.48;;;5.22;;
35324;SDS011;35135;47.510;19.036;2023-04-25T12:39:55;9.05;;;4.28;;
35324;SDS011;35135;47.510;19.036;2023-04-25T12:42:21;13.52;;;5.18;;
35324;SDS011;35135;47.510;19.036;2023-04-25T12:44:47;9.15;;;4.85;;
35324;SDS011;35135;47.510;19.036;2023-04-25T12:47:12;11.43;;;5.13;;
35324;SDS011;35135;47.510;19.036;2023-04-25T12:49:39;10.00;;;4.60;;
35324;SDS011;35135;47.510;19.036;2023-04-25T12:52:04;8.15;;;3.65;;
35324;SDS011;35135;47.510;19.036;2023-04-25T12:54:30;8.77;;;4.22;;
35324;SDS011;35135;47.510;19.036;2023-04-25T12:56:56;10.30;;;4.75;;
35324;SDS011;35135;47.510;19.036;2023-04-25T12:59:22;8.40;;;4.00;;
35324;SDS011;35135;47.510;19.036;2023-04-25T13:01:48;9.82;;;3.88;;
35324;SDS011;35135;47.510;19.036;2023-04-25T13:04:14;8.75;;;4.03;;
35324;SDS011;35135;47.510;19.036;2023-04-25T13:06:40;8.65;;;4.40;;
35324;SDS011;35135;47.510;19.036;2023-04-25T13:09:06;7.28;;;4.03;;
35324;SDS011;35135;47.510;19.036;2023-04-25T13:11:32;7.80;;;3.63;;
35324;SDS011;35135;47.510;19.036;2023-04-25T13:13:58;7.25;;;3.75;;
35324;SDS011;35135;47.510;19.036;2023-04-25T13:16:23;10.25;;;4.25;;
35324;SDS011;35135;47.510;19.036;2023-04-25T13:18:49;11.23;;;4.47;;
35324;SDS011;35135;47.510;19.036;2023-04-25T13:21:15;9.63;;;3.67;;
35324;SDS011;35135;47.510;19.036;2023-04-25T13:23:40;8.52;;;4.10;;
35324;SDS011;35135;47.510;19.036;2023-04-25T13:26:11;8.57;;;4.10;;
35324;SDS011;35135;47.510;19.036;2023-04-25T13:28:37;9.07;;;3.88;;
35324;SDS011;35135;47.510;19.036;2023-04-25T13:31:02;7.47;;;3.40;;
35324;SDS011;35135;47.510;19.036;2023-04-25T13:33:28;8.23;;;3.83;;
35324;SDS011;35135;47.510;19.036;2023-04-25T13:35:54;7.07;;;3.60;;
35324;SDS011;35135;47.510;19.036;2023-04-25T13:38:22;5.53;;;3.42;;
35324;SDS011;35135;47.510;19.036;2023-04-25T13:40:49;6.65;;;3.28;;
35324;SDS011;35135;47.510;19.036;2023-04-25T13:43:18;8.20;;;3.45;;
35324;SDS011;35135;47.510;19.036;2023-04-25T13:48:15;6.70;;;2.92;;
35324;SDS011;35135;47.510;19.036;2023-04-25T13:50:41;6.60;;;3.42;;
35324;SDS011;35135;47.510;19.036;2023-04-25T13:53:07;8.07;;;3.53;;
35324;SDS011;35135;47.510;19.036;2023-04-25T13:55:33;7.68;;;3.53;;
35324;SDS011;35135;47.510;19.036;2023-04-25T13:58:01;5.88;;;3.38;;
35324;SDS011;35135;47.510;19.036;2023-04-25T14:00:32;6.28;;;3.65;;
35324;SDS011;35135;47.510;19.036;2023-04-25T14:02:58;6.15;;;3.05;;
35324;SDS011;35135;47.510;19.036;2023-04-25T14:05:24;5.70;;;2.92;;
35324;SDS011;35135;47.510;19.036;2023-04-25T14:07:50;5.43;;;3.17;;
35324;SDS011;35135;47.510;19.036;2023-04-25T14:10:16;7.00;;;3.10;;
35324;SDS011;35135;47.510;19.036;2023-04-25T14:12:41;6.28;;;2.83;;
35324;SDS011;35135;47.510;19.036;2023-04-25T14:15:07;7.70;;;3.08;;
35324;SDS011;35135;47.510;19.036;2023-04-25T14:17:33;7.03;;;3.45;;
35324;SDS011;35135;47.510;19.036;2023-04-25T14:19:59;5.07;;;2.95;;
35324;SDS011;35135;47.510;19.036;2023-04-25T14:22:24;5.43;;;2.75;;
35324;SDS011;35135;47.510;19.036;2023-04-25T14:24:51;6.82;;;3.10;;
35324;SDS011;35135;47.510;19.036;2023-04-25T14:27:17;7.78;;;2.90;;
35324;SDS011;35135;47.510;19.036;2023-04-25T14:29:42;6.85;;;2.88;;
35324;SDS011;35135;47.510;19.036;2023-04-25T14:32:08;5.78;;;2.78;;
35324;SDS011;35135;47.510;19.036;2023-04-25T14:34:34;9.02;;;3.38;;
35324;SDS011;35135;47.510;19.036;2023-04-25T14:36:59;6.45;;;3.45;;
35324;SDS011;35135;47.510;19.036;2023-04-25T14:39:25;11.95;;;3.08;;
35324;SDS011;35135;47.510;19.036;2023-04-25T14:41:51;6.45;;;3.10;;
35324;SDS011;35135;47.510;19.036;2023-04-25T14:44:17;6.13;;;2.90;;
35324;SDS011;35135;47.510;19.036;2023-04-25T14:46:42;4.75;;;2.70;;
35324;SDS011;35135;47.510;19.036;2023-04-25T14:49:08;6.57;;;3.08;;